createdAt,value
2019-03-15T00:00:31.554Z,7.39
2019-03-15T00:03:04.451Z,7.51
2019-03-15T00:05:39.112Z,7.43
2019-03-15T00:08:11.958Z,7.69
2019-03-15T00:10:42.289Z,7.74
2019-03-15T00:13:12.776Z,7.76
2019-03-15T00:15:44.539Z,7.76
2019-03-15T00:18:15.474Z,7.85
2019-03-15T00:20:47.333Z,6.87
2019-03-15T00:23:22.016Z,6.43
2019-03-15T00:25:56.312Z,6.20
2019-03-15T00:28:29.677Z,6.04
2019-03-15T00:31:04.845Z,6.26
2019-03-15T00:33:35.768Z,6.41
2019-03-15T00:36:07.891Z,6.28
2019-03-15T00:38:39.751Z,6.03
2019-03-15T00:41:12.676Z,6.18
2019-03-15T00:43:49.062Z,6.26
2019-03-15T00:46:18.910Z,6.32
2019-03-15T00:48:51.475Z,6.27
2019-03-15T00:51:24.117Z,6.18
2019-03-15T00:53:56.942Z,6.12
2019-03-15T00:56:31.581Z,6.40
2019-03-15T00:59:04.953Z,6.39
2019-03-15T01:01:36.024Z,6.46
2019-03-15T01:04:09.635Z,6.72
2019-03-15T01:06:41.607Z,6.72
2019-03-15T01:09:14.585Z,6.57
2019-03-15T01:11:45.806Z,6.52
2019-03-15T01:14:18.750Z,6.39
2019-03-15T01:16:58.902Z,6.32
2019-03-15T01:19:29.952Z,6.93
2019-03-15T01:22:03.441Z,6.99
2019-03-15T01:24:36.090Z,7.12
2019-03-15T01:27:09.530Z,7.28
2019-03-15T01:29:44.105Z,7.32
2019-03-15T01:32:16.782Z,7.43
2019-03-15T01:34:50.935Z,7.70
2019-03-15T01:37:24.102Z,7.70
2019-03-15T01:39:56.854Z,7.63
2019-03-15T01:42:29.721Z,7.51
2019-03-15T01:45:09.120Z,7.37
2019-03-15T01:47:45.483Z,7.37
2019-03-15T01:50:17.520Z,7.46
2019-03-15T01:52:50.511Z,7.46
2019-03-15T01:55:23.255Z,7.31
2019-03-15T01:57:54.751Z,7.09
2019-03-15T02:00:27.782Z,6.92
2019-03-15T02:03:02.517Z,6.83
2019-03-15T02:05:35.541Z,6.95
2019-03-15T02:08:13.197Z,7.21
2019-03-15T02:10:47.143Z,7.09
2019-03-15T02:13:20.671Z,7.01
2019-03-15T02:15:53.541Z,7.15
2019-03-15T02:18:26.387Z,7.10
2019-03-15T02:21:00.020Z,6.77
2019-03-15T02:23:33.037Z,6.48
2019-03-15T02:26:05.153Z,6.87
2019-03-15T02:28:37.965Z,7.03
2019-03-15T02:31:10.154Z,7.01
2019-03-15T02:33:42.708Z,6.86
2019-03-15T02:36:15.146Z,6.57
2019-03-15T02:38:48.836Z,6.23
2019-03-15T02:41:22.515Z,6.09
2019-03-15T02:43:55.194Z,6.24
2019-03-15T02:46:30.193Z,6.48
2019-03-15T02:49:04.030Z,6.58
2019-03-15T02:51:36.750Z,6.50
2019-03-15T02:54:11.909Z,6.34
2019-03-15T02:56:47.747Z,6.12
2019-03-15T02:59:21.011Z,5.98
2019-03-15T03:01:52.231Z,6.53
2019-03-15T03:04:25.646Z,6.74
2019-03-15T03:06:58.174Z,6.81
2019-03-15T03:09:30.257Z,6.77
2019-03-15T03:12:02.166Z,6.75
2019-03-15T03:14:34.063Z,6.67
2019-03-15T03:17:05.918Z,6.60
2019-03-15T03:19:38.201Z,6.49
2019-03-15T03:22:11.400Z,6.65
2019-03-15T03:24:43.742Z,6.65
2019-03-15T03:27:18.242Z,6.63
2019-03-15T03:29:51.325Z,6.60
2019-03-15T03:32:25.514Z,6.61
2019-03-15T03:34:59.481Z,6.52
2019-03-15T03:37:32.362Z,6.58
2019-03-15T03:40:09.185Z,6.72
2019-03-15T03:42:44.223Z,6.83
2019-03-15T03:45:18.778Z,6.81
2019-03-15T03:47:50.437Z,6.71
2019-03-15T03:50:23.129Z,6.74
2019-03-15T03:52:56.977Z,6.82
2019-03-15T03:55:28.418Z,7.00
2019-03-15T03:58:02.360Z,6.98
2019-03-15T04:00:35.643Z,7.04
2019-03-15T04:03:08.574Z,6.98
2019-03-15T04:05:41.406Z,6.95
2019-03-15T04:08:15.775Z,6.96
2019-03-15T04:10:49.939Z,6.96
2019-03-15T04:13:22.810Z,6.80
2019-03-15T04:15:58.098Z,6.68
2019-03-15T04:18:31.939Z,6.86
2019-03-15T04:21:04.538Z,6.80
2019-03-15T04:23:38.875Z,6.73
2019-03-15T04:26:11.227Z,6.68
2019-03-15T04:28:44.858Z,6.74
2019-03-15T04:31:18.546Z,6.86
2019-03-15T04:33:51.422Z,7.00
2019-03-15T04:36:25.256Z,7.06
2019-03-15T04:39:02.502Z,7.10
2019-03-15T04:41:36.853Z,7.10
2019-03-15T04:44:09.290Z,7.03
2019-03-15T04:46:41.108Z,7.03
2019-03-15T04:49:14.982Z,7.11
2019-03-15T04:51:50.912Z,7.11
2019-03-15T04:54:22.097Z,7.08
2019-03-15T04:56:56.549Z,6.95
2019-03-15T04:59:32.639Z,6.76
2019-03-15T05:02:10.962Z,6.63
2019-03-15T05:04:44.203Z,6.51
2019-03-15T05:07:19.122Z,6.46
2019-03-15T05:09:52.048Z,6.68
2019-03-15T05:12:26.907Z,6.72
2019-03-15T05:15:00.703Z,6.72
2019-03-15T05:17:34.187Z,6.89
2019-03-15T05:20:08.972Z,6.89
2019-03-15T05:22:43.649Z,6.86
2019-03-15T05:25:15.168Z,6.86
2019-03-15T05:27:46.322Z,6.62
2019-03-15T05:30:19.444Z,6.93
2019-03-15T05:32:52.529Z,7.18
2019-03-15T05:35:42.119Z,7.31
2019-03-15T05:38:17.483Z,7.35
2019-03-15T05:40:50.018Z,7.17
2019-03-15T05:43:28.572Z,6.97
2019-03-15T05:46:02.511Z,6.97
2019-03-15T05:48:34.766Z,7.35
2019-03-15T05:51:07.812Z,7.53
2019-03-15T05:53:41.843Z,6.63
2019-03-15T05:56:14.187Z,6.43
2019-03-15T05:58:50.188Z,6.43
2019-03-15T06:01:22.295Z,6.36
2019-03-15T06:03:53.366Z,6.57
2019-03-15T06:06:29.146Z,6.92
2019-03-15T06:09:07.771Z,6.92
2019-03-15T06:11:39.064Z,7.45
2019-03-15T06:14:10.537Z,7.38
2019-03-15T06:16:41.429Z,7.62
2019-03-15T06:19:27.863Z,7.65
2019-03-15T06:22:04.355Z,7.28
2019-03-15T06:24:37.834Z,6.76
2019-03-15T06:27:11.792Z,6.76
2019-03-15T06:29:48.679Z,6.93
2019-03-15T06:32:20.980Z,6.88
2019-03-15T06:34:51.681Z,6.94
2019-03-15T06:37:25.826Z,7.33
2019-03-15T06:39:56.965Z,7.33
2019-03-15T06:42:31.523Z,7.69
2019-03-15T06:45:05.284Z,7.65
2019-03-15T06:47:38.141Z,7.89
2019-03-15T06:50:09.023Z,7.91
2019-03-15T06:52:41.584Z,8.05
2019-03-15T06:55:12.549Z,8.09
2019-03-15T06:57:43.291Z,8.11
2019-03-15T07:00:16.436Z,8.26
2019-03-15T07:02:47.845Z,8.01
2019-03-15T07:05:20.085Z,7.81
2019-03-15T07:07:55.877Z,7.82
2019-03-15T07:10:27.617Z,7.89
2019-03-15T07:12:59.661Z,7.60
2019-03-15T07:15:30.780Z,7.91
2019-03-15T07:18:00.905Z,8.12
2019-03-15T07:20:32.708Z,8.37
2019-03-15T07:23:03.486Z,8.33
2019-03-15T07:25:33.895Z,8.47
2019-03-15T07:28:04.010Z,8.57
2019-03-15T07:30:54.907Z,8.67
2019-03-15T07:33:26.161Z,9.02
2019-03-15T07:35:59.585Z,9.43
2019-03-15T07:38:30.978Z,9.37
2019-03-15T07:41:01.757Z,9.24
2019-03-15T07:43:32.833Z,9.41
2019-03-15T07:46:07.961Z,9.20
2019-03-15T07:48:38.611Z,8.75
2019-03-15T07:51:11.072Z,8.77
2019-03-15T07:53:43.689Z,8.97
2019-03-15T07:56:15.652Z,9.76
2019-03-15T07:58:45.816Z,10.35
2019-03-15T08:01:18.116Z,10.05
2019-03-15T08:03:49.876Z,10.27
2019-03-15T08:06:33.822Z,10.35
2019-03-15T08:08:58.582Z,10.64
2019-03-15T08:11:29.522Z,11.00
2019-03-15T08:14:00.821Z,11.82
2019-03-15T08:16:34.674Z,12.72
2019-03-15T08:19:05.999Z,13.64
2019-03-15T08:21:36.343Z,14.65
2019-03-15T08:24:09.538Z,15.04
2019-03-15T08:26:42.531Z,15.08
2019-03-15T08:29:12.873Z,15.15
2019-03-15T08:31:43.275Z,14.13
2019-03-15T08:34:14.422Z,13.03
2019-03-15T08:36:44.635Z,12.71
2019-03-15T08:39:15.561Z,12.64
2019-03-15T08:41:49.643Z,13.23
2019-03-15T08:44:21.090Z,12.76
2019-03-15T08:46:54.309Z,12.50
2019-03-15T08:49:24.564Z,12.56
2019-03-15T08:52:03.747Z,12.54
2019-03-15T08:54:32.402Z,13.59
2019-03-15T08:57:04.449Z,14.23
2019-03-15T08:59:37.016Z,13.73
2019-03-15T09:02:07.923Z,13.59
2019-03-15T09:04:38.210Z,13.88
2019-03-15T09:07:10.018Z,13.78
2019-03-15T09:09:54.911Z,14.70
2019-03-15T09:12:33.201Z,14.71
2019-03-15T09:15:09.943Z,14.76
2019-03-15T09:18:02.688Z,15.62
2019-03-15T09:20:52.879Z,15.62
2019-03-15T09:23:38.794Z,15.54
2019-03-15T09:26:24.408Z,16.97
2019-03-15T09:29:05.259Z,17.36
2019-03-15T09:31:49.208Z,16.13
2019-03-15T09:34:28.055Z,15.08
2019-03-15T09:36:59.069Z,16.18
2019-03-15T09:39:44.326Z,15.54
2019-03-15T09:42:26.592Z,16.40
2019-03-15T09:45:02.139Z,16.81
2019-03-15T09:47:48.640Z,17.26
2019-03-15T09:50:36.170Z,18.60
2019-03-15T09:53:05.935Z,19.08
2019-03-15T09:55:55.206Z,19.47
2019-03-15T09:58:32.909Z,19.22
2019-03-15T10:01:34.206Z,18.94
2019-03-15T10:03:58.840Z,18.94
2019-03-15T10:06:33.685Z,19.63
2019-03-15T10:09:16.823Z,19.73
2019-03-15T10:11:56.436Z,18.34
2019-03-15T10:14:35.232Z,18.60
2019-03-15T10:17:16.893Z,18.31
2019-03-15T10:19:50.171Z,17.37
2019-03-15T10:22:33.588Z,17.79
2019-03-15T10:25:21.063Z,17.95
2019-03-15T10:28:05.395Z,18.00
2019-03-15T10:30:40.122Z,18.88
2019-03-15T10:33:24.865Z,18.83
2019-03-15T10:35:59.235Z,18.98
2019-03-15T10:38:47.390Z,18.34
2019-03-15T10:41:24.343Z,18.09
2019-03-15T10:44:04.242Z,18.56
2019-03-15T10:50:07.707Z,18.96
2019-03-15T10:52:42.329Z,20.01
2019-03-15T10:55:12.927Z,20.12
2019-03-15T10:57:43.434Z,19.86
2019-03-15T11:00:20.752Z,19.66
2019-03-15T11:02:50.856Z,19.11
2019-03-15T11:05:20.920Z,19.80
2019-03-15T11:07:53.433Z,20.12
2019-03-15T11:10:24.073Z,19.11
2019-03-15T11:12:55.589Z,19.78
2019-03-15T11:15:26.621Z,18.62
2019-03-15T11:17:57.414Z,19.62
2019-03-15T11:20:27.984Z,19.22
2019-03-15T11:22:58.531Z,18.45
2019-03-15T11:25:32.667Z,18.63
2019-03-15T11:28:03.169Z,19.09
2019-03-15T11:30:34.454Z,19.67
2019-03-15T11:33:04.778Z,19.55
2019-03-15T11:35:37.824Z,19.56
2019-03-15T11:38:08.413Z,20.34
2019-03-15T11:40:39.512Z,19.59
2019-03-15T11:43:09.735Z,19.92
2019-03-15T11:45:39.846Z,18.47
2019-03-15T11:48:10.810Z,19.82
2019-03-15T11:50:41.891Z,20.66
2019-03-15T11:53:13.222Z,19.34
2019-03-15T11:55:44.854Z,19.27
2019-03-15T11:58:15.456Z,18.86
2019-03-15T12:00:48.109Z,19.20
2019-03-15T12:03:19.936Z,19.13
2019-03-15T12:05:50.668Z,20.07
2019-03-15T12:08:21.353Z,20.40
2019-03-15T12:10:52.739Z,19.31
2019-03-15T12:13:23.446Z,18.91
2019-03-15T12:15:55.346Z,19.25
2019-03-15T12:18:26.947Z,20.48
2019-03-15T12:20:59.823Z,19.90
2019-03-15T12:23:31.798Z,19.73
2019-03-15T12:26:05.396Z,19.97
2019-03-15T12:28:36.126Z,20.51
2019-03-15T12:31:06.253Z,20.64
2019-03-15T12:33:36.260Z,21.29
2019-03-15T12:36:11.162Z,21.56
2019-03-15T12:38:41.169Z,20.46
2019-03-15T12:41:11.315Z,20.37
2019-03-15T12:43:45.033Z,21.36
2019-03-15T12:46:17.937Z,19.93
2019-03-15T12:48:48.371Z,19.63
2019-03-15T12:51:31.480Z,19.88
2019-03-15T12:53:51.165Z,19.75
2019-03-15T12:56:21.221Z,19.57
2019-03-15T12:58:51.659Z,19.26
2019-03-15T13:01:21.943Z,20.84
2019-03-15T13:03:52.182Z,21.15
2019-03-15T13:06:22.439Z,21.71
2019-03-15T13:08:55.327Z,20.79
2019-03-15T13:11:30.182Z,20.50
2019-03-15T13:14:05.496Z,21.04
2019-03-15T13:16:35.563Z,20.25
2019-03-15T13:19:06.039Z,19.47
2019-03-15T13:21:36.389Z,20.91
2019-03-15T13:24:09.859Z,21.54
2019-03-15T13:26:40.566Z,20.61
2019-03-15T13:29:10.815Z,20.89
2019-03-15T13:31:44.594Z,20.85
2019-03-15T13:34:14.960Z,20.44
2019-03-15T13:36:45.802Z,19.47
2019-03-15T13:39:16.931Z,19.08
2019-03-15T13:41:47.219Z,18.43
2019-03-15T13:44:18.074Z,18.71
2019-03-15T13:46:48.831Z,18.35
2019-03-15T13:49:23.906Z,18.38
2019-03-15T13:51:58.334Z,19.14
2019-03-15T13:54:30.405Z,18.65
2019-03-15T13:57:20.671Z,18.33
2019-03-15T13:59:47.550Z,18.37
2019-03-15T14:02:21.393Z,18.68
2019-03-15T14:04:53.053Z,18.29
2019-03-15T14:07:25.727Z,17.88
2019-03-15T14:09:57.575Z,17.94
2019-03-15T14:12:29.038Z,18.20
2019-03-15T14:15:00.204Z,18.31
2019-03-15T14:17:33.358Z,18.34
2019-03-15T14:20:05.619Z,18.08
2019-03-15T14:22:38.199Z,17.67
2019-03-15T14:25:21.217Z,17.33
2019-03-15T14:27:53.912Z,17.07
2019-03-15T14:30:27.499Z,16.83
2019-03-15T14:33:00.355Z,16.78
2019-03-15T14:35:33.729Z,16.80
2019-03-15T14:38:07.148Z,16.96
2019-03-15T14:40:47.481Z,16.99
2019-03-15T14:43:39.769Z,16.99
2019-03-15T14:46:12.969Z,17.17
2019-03-15T14:48:43.206Z,17.30
2019-03-15T14:51:15.851Z,17.33
2019-03-15T14:53:49.377Z,17.25
2019-03-15T14:56:20.295Z,17.12
2019-03-15T14:58:51.631Z,17.08
2019-03-15T15:01:24.402Z,16.92
2019-03-15T15:03:59.148Z,16.91
2019-03-15T15:06:29.882Z,16.82
2019-03-15T15:09:02.442Z,16.85
2019-03-15T15:11:34.565Z,16.84
2019-03-15T15:14:05.036Z,17.00
2019-03-15T15:16:38.170Z,16.98
2019-03-15T15:19:09.322Z,16.87
2019-03-15T15:21:41.763Z,16.69
2019-03-15T15:24:12.396Z,16.58
2019-03-15T15:26:43.418Z,16.52
2019-03-15T15:29:13.719Z,16.47
2019-03-15T15:31:47.932Z,16.45
2019-03-15T15:34:20.162Z,16.42
2019-03-15T15:36:52.188Z,16.44
2019-03-15T15:39:22.841Z,16.41
2019-03-15T15:41:54.258Z,16.38
2019-03-15T15:44:25.520Z,16.31
2019-03-15T15:46:57.049Z,16.22
2019-03-15T15:49:29.325Z,16.23
2019-03-15T15:52:00.468Z,16.24
2019-03-15T15:54:30.978Z,16.27
2019-03-15T15:57:02.840Z,16.12
2019-03-15T15:59:33.487Z,16.03
2019-03-15T16:02:04.211Z,15.97
2019-03-15T16:04:34.927Z,15.95
2019-03-15T16:07:08.129Z,15.80
2019-03-15T16:09:38.779Z,15.68
2019-03-15T16:12:10.521Z,15.63
2019-03-15T16:14:42.557Z,15.65
2019-03-15T16:17:17.047Z,15.55
2019-03-15T16:19:50.091Z,15.52
2019-03-15T16:22:20.612Z,15.44
2019-03-15T16:24:54.249Z,15.39
2019-03-15T16:27:25.923Z,15.31
2019-03-15T16:29:58.173Z,15.30
2019-03-15T16:32:30.600Z,15.30
2019-03-15T16:35:01.547Z,15.23
2019-03-15T16:37:32.034Z,15.11
2019-03-15T16:40:04.418Z,15.05
2019-03-15T16:42:35.102Z,14.96
2019-03-15T16:45:11.165Z,14.93
2019-03-15T16:47:41.875Z,14.88
2019-03-15T16:50:13.900Z,14.79
2019-03-15T16:52:45.078Z,14.64
2019-03-15T16:55:17.455Z,14.55
2019-03-15T16:57:48.486Z,14.47
2019-03-15T17:00:20.292Z,14.45
2019-03-15T17:02:51.274Z,14.42
2019-03-15T17:05:22.836Z,14.34
2019-03-15T17:07:53.352Z,14.30
2019-03-15T17:10:24.888Z,14.22
2019-03-15T17:12:56.541Z,14.20
2019-03-15T17:15:47.681Z,14.14
2019-03-15T17:18:28.400Z,14.08
2019-03-15T17:20:59.555Z,14.02
2019-03-15T17:23:32.674Z,13.99
2019-03-15T17:26:03.107Z,13.89
2019-03-15T17:28:35.112Z,13.83
2019-03-15T17:31:10.419Z,13.77
2019-03-15T17:33:43.465Z,13.72
2019-03-15T17:36:15.204Z,13.62
2019-03-15T17:38:47.294Z,13.59
2019-03-15T17:41:18.074Z,13.53
2019-03-15T17:43:48.221Z,13.45
2019-03-15T17:46:19.607Z,13.19
2019-03-15T17:48:50.612Z,12.97
2019-03-15T17:51:21.806Z,12.87
2019-03-15T17:53:54.262Z,12.76
2019-03-15T17:56:25.639Z,13.01
2019-03-15T17:59:11.575Z,13.15
2019-03-15T18:01:35.815Z,13.26
2019-03-15T18:04:14.010Z,13.23
2019-03-15T18:06:43.705Z,13.17
2019-03-15T18:09:13.823Z,13.10
2019-03-15T18:11:45.948Z,13.15
2019-03-15T18:14:18.665Z,13.13
2019-03-15T18:16:50.446Z,13.13
2019-03-15T18:19:22.043Z,12.94
2019-03-15T18:21:53.183Z,12.90
2019-03-15T18:24:29.531Z,12.80
2019-03-15T18:27:00.953Z,12.73
2019-03-15T18:29:31.831Z,12.69
2019-03-15T18:32:02.553Z,12.72
2019-03-15T18:34:33.674Z,12.80
2019-03-15T18:37:08.504Z,12.79
2019-03-15T18:39:40.661Z,12.74
2019-03-15T18:42:14.261Z,12.62
2019-03-15T18:44:47.857Z,12.54
2019-03-15T18:47:20.454Z,12.48
2019-03-15T18:49:51.177Z,12.50
2019-03-15T18:52:23.424Z,12.46
2019-03-15T18:54:55.171Z,12.35
2019-03-15T18:57:26.395Z,12.20
2019-03-15T18:59:57.569Z,12.14
2019-03-15T19:02:28.165Z,12.21
2019-03-15T19:05:00.374Z,12.23
2019-03-15T19:07:35.397Z,12.28
2019-03-15T19:10:12.733Z,12.31
2019-03-15T19:12:43.674Z,12.28
2019-03-15T19:15:21.205Z,12.25
2019-03-15T19:17:54.241Z,12.36
2019-03-15T19:20:29.051Z,12.29
2019-03-15T19:23:00.211Z,12.17
2019-03-15T19:25:35.405Z,12.09
2019-03-15T19:28:10.207Z,12.23
2019-03-15T19:30:44.104Z,12.22
2019-03-15T19:33:17.020Z,12.00
2019-03-15T19:35:49.966Z,11.56
2019-03-15T19:38:24.287Z,11.29
2019-03-15T19:41:04.919Z,11.62
2019-03-15T19:43:56.465Z,11.91
2019-03-15T19:46:28.863Z,12.09
2019-03-15T19:49:00.383Z,12.21
2019-03-15T19:51:33.190Z,12.21
2019-03-15T19:54:08.319Z,12.18
2019-03-15T19:56:39.913Z,12.15
2019-03-15T20:02:00.439Z,12.04
2019-03-15T20:04:33.039Z,11.93
2019-03-15T20:07:05.047Z,11.81
2019-03-15T20:09:37.571Z,11.57
2019-03-15T20:12:09.482Z,11.32
2019-03-15T20:14:41.702Z,11.15
2019-03-15T20:17:14.061Z,10.95
2019-03-15T20:19:47.274Z,11.15
2019-03-15T20:22:22.331Z,11.32
2019-03-15T20:24:57.955Z,11.45
2019-03-15T20:27:31.894Z,11.52
2019-03-15T20:30:20.212Z,11.42
2019-03-15T20:32:39.465Z,11.12
2019-03-15T20:35:11.851Z,10.76
2019-03-15T20:37:47.897Z,10.43
2019-03-15T20:40:19.866Z,10.27
2019-03-15T20:43:02.587Z,10.37
2019-03-15T20:45:41.633Z,10.41
2019-03-15T20:48:18.400Z,11.08
2019-03-15T20:50:51.540Z,11.38
2019-03-15T20:53:23.015Z,11.45
2019-03-15T20:55:57.409Z,11.51
2019-03-15T20:58:30.259Z,11.49
2019-03-15T21:01:02.928Z,11.50
2019-03-15T21:03:38.617Z,11.52
2019-03-15T21:06:10.465Z,11.47
2019-03-15T21:08:42.236Z,11.47
2019-03-15T21:11:14.130Z,11.43
2019-03-15T21:13:45.372Z,11.44
2019-03-15T21:16:18.212Z,11.37
2019-03-15T21:18:48.693Z,11.30
2019-03-15T21:21:21.308Z,11.26
2019-03-15T21:23:53.432Z,11.16
2019-03-15T21:26:24.752Z,11.15
2019-03-15T21:28:58.692Z,11.15
2019-03-15T21:31:32.948Z,11.16
2019-03-15T21:34:06.071Z,11.13
2019-03-15T21:36:37.486Z,11.08
2019-03-15T21:39:10.433Z,11.00
2019-03-15T21:41:46.339Z,10.97
2019-03-15T21:44:23.232Z,10.88
2019-03-15T21:46:56.168Z,10.71
2019-03-15T21:49:35.442Z,10.39
2019-03-15T21:52:06.873Z,10.06
2019-03-15T21:54:38.430Z,9.36
2019-03-15T21:57:12.434Z,8.85
2019-03-15T21:59:43.300Z,8.43
2019-03-15T22:02:15.857Z,9.06
2019-03-15T22:04:50.511Z,10.23
2019-03-15T22:07:27.485Z,10.49
2019-03-15T22:10:01.862Z,10.62
2019-03-15T22:12:35.092Z,10.65
2019-03-15T22:15:09.923Z,10.51
2019-03-15T22:17:44.992Z,10.46
2019-03-15T22:20:20.023Z,10.63
2019-03-15T22:22:52.933Z,10.71
2019-03-15T22:25:24.855Z,10.64
2019-03-15T22:28:05.971Z,10.62
2019-03-15T22:30:45.128Z,10.79
2019-03-15T22:33:41.423Z,10.92
2019-03-15T22:36:12.205Z,10.95
2019-03-15T22:38:46.343Z,10.76
2019-03-15T22:41:36.932Z,10.59
2019-03-15T22:44:23.682Z,10.34
2019-03-15T22:46:59.126Z,10.41
2019-03-15T22:49:29.921Z,10.24
2019-03-15T22:52:01.702Z,9.83
2019-03-15T22:54:33.347Z,9.23
2019-03-15T22:57:06.846Z,8.63
2019-03-15T22:59:41.740Z,8.30
2019-03-15T23:02:15.333Z,8.99
2019-03-15T23:04:51.235Z,9.77
2019-03-15T23:07:26.250Z,10.17
2019-03-15T23:10:00.385Z,10.30
2019-03-15T23:12:46.605Z,10.39
2019-03-15T23:15:26.485Z,10.47
2019-03-15T23:18:05.906Z,10.49
2019-03-15T23:20:38.074Z,10.44
2019-03-15T23:23:23.781Z,10.36
2019-03-15T23:25:55.213Z,10.36
2019-03-15T23:28:33.003Z,10.39
2019-03-15T23:31:06.169Z,10.31
2019-03-15T23:33:48.394Z,10.20
2019-03-15T23:36:28.162Z,10.17
2019-03-15T23:39:10.026Z,10.15
2019-03-15T23:41:55.256Z,10.00
2019-03-15T23:44:32.643Z,9.80
2019-03-15T23:47:08.969Z,9.85
2019-03-15T23:50:14.558Z,9.90
2019-03-15T23:52:54.457Z,9.94
2019-03-15T23:55:30.447Z,9.83
2019-03-15T23:58:12.252Z,9.47
